createdAt,value
2023-01-29T00:00:56.744Z,11.43
2023-01-29T00:06:01.110Z,11.32
2023-01-29T00:11:04.329Z,11.30
2023-01-29T00:16:07.377Z,10.95
2023-01-29T00:21:12.132Z,10.10
2023-01-29T00:26:15.542Z,11.20
2023-01-29T00:31:23.599Z,11.10
2023-01-29T00:36:28.277Z,10.85
2023-01-29T00:41:50.519Z,11.40
2023-01-29T00:47:03.348Z,11.57
2023-01-29T00:52:30.214Z,10.98
2023-01-29T00:57:34.151Z,11.10
2023-01-29T01:02:54.892Z,10.93
2023-01-29T01:07:59.633Z,10.88
2023-01-29T01:13:03.610Z,11.50
2023-01-29T01:18:06.781Z,10.98
2023-01-29T01:23:14.809Z,11.15
2023-01-29T01:28:17.496Z,11.43
2023-01-29T01:33:20.209Z,11.50
2023-01-29T01:38:24.307Z,11.93
2023-01-29T01:43:26.930Z,11.95
2023-01-29T01:48:29.588Z,12.40
2023-01-29T01:53:38.528Z,12.02
2023-01-29T01:58:43.824Z,11.57
2023-01-29T02:04:08.426Z,12.27
2023-01-29T02:09:33.198Z,11.57
2023-01-29T02:14:38.930Z,11.80
2023-01-29T02:19:53.309Z,12.10
2023-01-29T02:25:09.634Z,11.88
2023-01-29T02:30:18.824Z,12.07
2023-01-29T02:35:26.993Z,12.27
2023-01-29T02:40:32.467Z,11.60
2023-01-29T02:45:44.450Z,11.80
2023-01-29T02:50:50.960Z,12.18
2023-01-29T02:55:57.473Z,12.27
2023-01-29T03:01:04.874Z,12.27
2023-01-29T03:06:20.644Z,12.38
2023-01-29T03:11:23.940Z,13.18
2023-01-29T03:16:32.388Z,12.27
2023-01-29T03:21:55.217Z,12.68
2023-01-29T03:27:17.838Z,12.52
2023-01-29T03:32:23.877Z,12.05
2023-01-29T03:37:30.456Z,12.57
2023-01-29T03:42:41.898Z,12.13
2023-01-29T03:47:48.744Z,11.90
2023-01-29T03:52:53.168Z,12.20
2023-01-29T03:57:59.855Z,11.75
2023-01-29T04:03:09.061Z,11.30
2023-01-29T04:08:16.473Z,11.75
2023-01-29T04:13:20.387Z,11.00
2023-01-29T04:18:26.382Z,11.52
2023-01-29T04:23:40.983Z,11.52
2023-01-29T04:28:55.188Z,11.93
2023-01-29T04:34:06.468Z,11.68
2023-01-29T04:39:14.298Z,11.75
2023-01-29T04:44:20.542Z,11.80
2023-01-29T04:49:32.575Z,11.23
2023-01-29T04:54:43.678Z,12.52
2023-01-29T04:59:53.555Z,11.82
2023-01-29T05:04:58.556Z,11.60
2023-01-29T05:10:01.482Z,11.30
2023-01-29T05:15:06.959Z,11.80
2023-01-29T05:20:13.041Z,12.30
2023-01-29T05:25:23.995Z,12.10
2023-01-29T05:30:26.796Z,12.13
2023-01-29T05:35:31.218Z,13.07
2023-01-29T05:40:33.929Z,11.77
2023-01-29T05:45:36.616Z,11.45
2023-01-29T05:50:40.577Z,11.55
2023-01-29T05:55:45.175Z,11.60
2023-01-29T06:00:47.846Z,11.57
2023-01-29T06:05:51.808Z,11.73
2023-01-29T06:10:54.391Z,11.68
2023-01-29T06:15:57.111Z,11.23
2023-01-29T06:21:03.234Z,11.38
2023-01-29T06:26:07.855Z,12.18
2023-01-29T06:31:27.461Z,11.90
2023-01-29T06:36:35.633Z,10.73
2023-01-29T06:41:38.238Z,11.30
2023-01-29T06:46:40.877Z,11.13
2023-01-29T06:51:44.818Z,11.70
2023-01-29T06:56:47.436Z,11.48
2023-01-29T07:01:50.144Z,11.10
2023-01-29T07:06:54.189Z,11.63
2023-01-29T07:11:56.843Z,11.48
2023-01-29T07:16:59.491Z,11.43
2023-01-29T07:22:03.877Z,11.57
2023-01-29T07:27:06.438Z,11.48
2023-01-29T07:32:09.172Z,11.88
2023-01-29T07:37:13.641Z,11.65
2023-01-29T07:42:16.280Z,11.90
2023-01-29T07:47:19.017Z,11.70
2023-01-29T07:52:22.979Z,11.93
2023-01-29T07:57:25.971Z,11.27
2023-01-29T08:02:28.691Z,10.68
2023-01-29T08:07:32.687Z,11.93
2023-01-29T08:12:35.424Z,11.75
2023-01-29T08:17:52.547Z,11.30
2023-01-29T08:23:02.080Z,11.77
2023-01-29T08:28:05.306Z,11.70
2023-01-29T08:33:07.957Z,11.50
2023-01-29T08:38:11.930Z,11.48
2023-01-29T08:43:14.916Z,11.57
2023-01-29T08:48:17.549Z,11.50
2023-01-29T08:53:31.010Z,11.60
2023-01-29T08:58:33.727Z,10.50
2023-01-29T09:03:36.400Z,10.82
2023-01-29T09:08:40.579Z,10.35
2023-01-29T09:13:43.264Z,10.85
2023-01-29T09:18:45.864Z,11.68
2023-01-29T09:23:49.807Z,11.73
2023-01-29T09:28:52.391Z,11.30
2023-01-29T09:33:54.992Z,11.38
2023-01-29T09:38:58.923Z,11.00
2023-01-29T09:44:03.676Z,10.88
2023-01-29T09:49:10.291Z,11.07
2023-01-29T09:54:18.836Z,11.10
2023-01-29T09:59:24.292Z,11.13
2023-01-29T10:04:56.811Z,11.13
2023-01-29T10:10:14.667Z,11.10
2023-01-29T10:15:27.093Z,11.07
2023-01-29T10:20:38.194Z,11.80
2023-01-29T10:25:42.677Z,11.05
2023-01-29T10:30:49.381Z,11.15
2023-01-29T10:35:55.941Z,11.93
2023-01-29T10:41:09.243Z,11.15
2023-01-29T10:46:22.556Z,11.70
2023-01-29T10:51:43.001Z,11.80
2023-01-29T10:56:55.705Z,11.68
2023-01-29T11:02:00.064Z,11.13
2023-01-29T11:07:02.918Z,11.77
2023-01-29T11:12:12.796Z,11.70
2023-01-29T11:17:17.168Z,12.05
2023-01-29T11:22:21.432Z,11.32
2023-01-29T11:27:29.586Z,11.05
2023-01-29T11:32:35.224Z,11.20
2023-01-29T11:37:39.294Z,11.90
2023-01-29T11:42:43.313Z,11.13
2023-01-29T11:47:50.184Z,11.13
2023-01-29T11:52:53.051Z,11.30
2023-01-29T11:58:52.657Z,11.18
2023-01-29T12:10:34.000Z,11.13
2023-01-29T12:15:36.889Z,34.60
2023-01-29T12:20:42.645Z,50.70
2023-01-29T12:25:52.920Z,98.35
2023-01-29T12:31:04.832Z,108.18
2023-01-29T12:36:12.107Z,104.18
2023-01-29T12:41:26.274Z,101.72
2023-01-29T12:46:30.615Z,99.50
2023-01-29T12:51:38.359Z,98.13
2023-01-29T12:56:47.036Z,95.03
2023-01-29T13:01:53.156Z,93.40
2023-01-29T13:06:59.456Z,91.65
2023-01-29T13:12:05.093Z,92.85
2023-01-29T13:17:10.528Z,87.63
2023-01-29T13:22:18.624Z,85.35
2023-01-29T13:27:25.861Z,86.43
2023-01-29T13:32:29.926Z,84.20
2023-01-29T13:37:34.466Z,82.82
2023-01-29T13:42:43.849Z,80.68
2023-01-29T13:47:46.693Z,80.05
2023-01-29T13:52:54.936Z,75.82
2023-01-29T13:57:59.731Z,73.63
2023-01-29T14:04:04.112Z,74.05
2023-01-29T14:09:55.908Z,73.38
2023-01-29T14:15:22.230Z,70.05
2023-01-29T14:20:39.091Z,67.75
2023-01-29T14:25:47.992Z,67.40
2023-01-29T14:30:52.588Z,66.35
2023-01-29T14:35:57.348Z,63.42
2023-01-29T14:41:10.675Z,61.03
2023-01-29T14:46:45.517Z,61.85
2023-01-29T14:51:48.577Z,58.53
2023-01-29T14:56:58.528Z,57.95
2023-01-29T15:02:06.643Z,56.13
2023-01-29T15:07:18.897Z,53.63
2023-01-29T15:12:26.953Z,52.72
2023-01-29T15:17:34.146Z,51.10
2023-01-29T15:22:43.592Z,50.10
2023-01-29T15:27:46.706Z,48.67
2023-01-29T15:32:50.936Z,47.08
2023-01-29T15:38:01.190Z,45.35
2023-01-29T15:43:03.889Z,44.33
2023-01-29T15:48:14.282Z,42.75
2023-01-29T15:53:19.265Z,43.00
2023-01-29T15:58:24.920Z,42.92
2023-01-29T16:03:32.105Z,40.17
2023-01-29T16:08:35.270Z,38.90
2023-01-29T16:13:42.791Z,37.70
2023-01-29T16:18:59.593Z,36.20
2023-01-29T16:24:07.469Z,36.13
2023-01-29T16:29:12.321Z,35.50
2023-01-29T16:34:21.772Z,33.58
2023-01-29T16:39:27.046Z,32.60
2023-01-29T16:44:34.166Z,32.25
2023-01-29T16:49:52.649Z,31.40
2023-01-29T16:55:15.745Z,31.17
2023-01-29T17:00:23.412Z,29.15
2023-01-29T17:05:30.512Z,28.63
2023-01-29T17:10:33.734Z,28.35
2023-01-29T17:15:38.251Z,27.58
2023-01-29T17:20:42.332Z,27.25
2023-01-29T17:25:45.150Z,26.40
2023-01-29T17:31:00.185Z,25.73
2023-01-29T17:36:12.428Z,25.75
2023-01-29T17:41:19.000Z,25.65
2023-01-29T17:46:22.721Z,23.80
2023-01-29T17:51:26.935Z,23.58
2023-01-29T17:56:30.517Z,23.80
2023-01-29T18:01:33.252Z,22.63
2023-01-29T18:06:37.448Z,22.00
2023-01-29T18:11:40.194Z,22.27
2023-01-29T18:16:43.997Z,20.67
2023-01-29T18:21:48.185Z,20.70
2023-01-29T18:26:51.097Z,19.60
2023-01-29T18:31:54.904Z,20.20
2023-01-29T18:36:59.715Z,19.67
2023-01-29T18:42:02.376Z,18.92
2023-01-29T18:47:05.971Z,18.95
2023-01-29T18:52:10.074Z,19.27
2023-01-29T18:58:27.126Z,17.55
2023-01-29T19:02:35.467Z,18.15
2023-01-29T19:07:39.530Z,17.02
2023-01-29T19:12:42.306Z,17.05
2023-01-29T19:17:45.013Z,17.45
2023-01-29T19:22:49.202Z,16.98
2023-01-29T19:27:52.033Z,16.90
2023-01-29T19:32:54.729Z,15.10
2023-01-29T19:37:58.785Z,15.32
2023-01-29T19:43:01.477Z,14.90
2023-01-29T19:48:04.442Z,15.57
2023-01-29T19:53:08.481Z,14.30
2023-01-29T19:58:11.509Z,15.05
2023-01-29T20:03:14.175Z,14.45
2023-01-29T20:08:18.453Z,13.65
2023-01-29T20:13:21.122Z,14.00
2023-01-29T20:18:24.057Z,12.80
2023-01-29T20:23:37.612Z,13.23
2023-01-29T20:28:41.369Z,12.57
2023-01-29T20:33:44.493Z,13.32
2023-01-29T20:38:48.615Z,13.00
2023-01-29T20:43:51.274Z,13.18
2023-01-29T20:48:54.450Z,11.93
2023-01-29T20:53:58.504Z,12.68
2023-01-29T20:59:02.338Z,11.75
2023-01-29T21:04:05.101Z,11.20
2023-01-29T21:09:09.425Z,10.70
2023-01-29T21:14:12.459Z,11.43
2023-01-29T21:19:15.639Z,10.90
2023-01-29T21:24:19.830Z,11.07
2023-01-29T21:29:22.527Z,10.60
2023-01-29T21:34:25.617Z,10.60
2023-01-29T21:39:29.672Z,11.30
2023-01-29T21:44:33.586Z,10.48
2023-01-29T21:49:36.315Z,10.82
2023-01-29T21:54:40.848Z,10.45
2023-01-29T21:59:43.724Z,9.75
2023-01-29T22:04:52.173Z,9.68
2023-01-29T22:09:56.167Z,9.40
2023-01-29T22:14:58.786Z,9.05
2023-01-29T22:20:01.483Z,9.43
2023-01-29T22:25:06.467Z,9.40
2023-01-29T22:30:10.625Z,8.52
2023-01-29T22:35:13.336Z,8.25
2023-01-29T22:40:17.886Z,8.70
2023-01-29T22:45:20.695Z,8.63
2023-01-29T22:50:23.362Z,8.45
2023-01-29T22:55:27.419Z,8.68
2023-01-29T23:00:30.159Z,8.13
2023-01-29T23:05:32.838Z,8.48
2023-01-29T23:10:36.963Z,7.90
2023-01-29T23:15:39.745Z,8.05
2023-01-29T23:20:44.116Z,7.90
2023-01-29T23:26:05.755Z,7.97
2023-01-29T23:31:08.479Z,7.75
2023-01-29T23:36:11.298Z,7.72
2023-01-29T23:41:15.414Z,7.50
2023-01-29T23:46:18.104Z,6.80
2023-01-29T23:51:20.820Z,7.63
2023-01-29T23:56:24.997Z,7.30
